ADDS METAR Data INFO
IDs: Format: Raw Decoded Include TAF

Data at: 1409 UTC 24 Feb 2018

KBDR 241352Z 21005KT 8SM CLR 07/06 A3015 RMK AO2 SLP211 T00670056
KBDR 241252Z 00000KT 4SM BR CLR 06/05 A3016 RMK AO2 SLP211 T00610050
KBDR 241155Z 31003KT 3SM BR CLR 03/03 A3016 RMK AO2 T00280028
KBDR 241152Z 31003KT 3SM BR CLR 03/03 A3015 RMK AO2 SLP211 70012 T00280028 10039 20028 53016
KBDR 241052Z AUTO 23005KT 6SM BR CLR 04/03 A3013 RMK AO2 SLP203 T00390028
KBDR 240952Z AUTO 25004KT 6SM BR CLR 04/03 A3010 RMK AO2 SLP194 T00390028
KBDR 240852Z AUTO 24007KT 5SM BR CLR 04/03 A3011 RMK AO2 SLP195 T00390028 58013
KBDR 240752Z AUTO 23006KT 4SM BR CLR 04/03 A3012 RMK AO2 SLP199 T00390028
KBDR 240729Z AUTO 23006KT 3SM BR FEW009 04/03 A3013 RMK AO2 T00390028
KBDR 240702Z AUTO 23005KT 3SM BR BKN008 BKN050 04/03 A3014 RMK AO2 T00390033
KBDR 240652Z AUTO 24005KT 2 1/2SM BR FEW002 BKN007 OVC050 03/03 A3015 RMK AO2 SLP208 T00330028
KBDR 240649Z AUTO 23005KT 2 1/2SM BR FEW002 BKN007 OVC050 03/03 A3015 RMK AO2
KBDR 240631Z AUTO 24005KT 2SM BR SCT007 OVC050 03/03 A3014 RMK AO2 T00330033
KBDR 240615Z AUTO 23006KT 1SM BR BKN005 OVC009 03/03 A3015 RMK AO2 T00330028
KBDR 240552Z AUTO 23006KT 3/4SM BR VV003 03/03 A3015 RMK AO2 SLP210 60000 T00330028 10033 20028 56012
KBDR 240550Z AUTO 23005KT 3/4SM BR VV003 03/03 A3015 RMK AO2
KBDR 240538Z AUTO 23005KT 1/2SM FG VV003 03/03 A3015 RMK AO2 T00330028
KBDR 240452Z AUTO 23006KT 1/2SM FG VV002 03/02 A3016 RMK AO2 SLP214 T00330022 400330011
KBDR 240443Z AUTO 23005KT 1/2SM FG VV002 03/03 A3016 RMK AO2 T00330028
KBDR 240436Z AUTO 22005KT 3/4SM BR VV003 03/03 A3017 RMK AO2 T00330028
KBDR 240428Z AUTO 23004KT 1SM BR OVC003 03/02 A3018 RMK AO2 T00330022
KBDR 240417Z AUTO 24004KT 2 1/2SM BR OVC004 03/03 A3018 RMK AO2 T00330028
KBDR 240352Z AUTO 26005KT 5SM BR BKN005 OVC010 03/03 A3019 RMK AO2 SLP222 T00330028
KBDR 240305Z AUTO 26005KT 3SM BR OVC004 03/02 A3021 RMK AO2 T00330022
KBDR 240301Z AUTO 26005KT 2 1/2SM BR OVC005 03/02 A3022 RMK AO2 T00330022
KBDR 240252Z 26004KT 3SM BR OVC005 03/02 A3021 RMK AO2 SLP230 60000 T00330022 58035
KBDR 240249Z 25004KT 3SM BR OVC005 03/02 A3021 RMK AO2
KBDR 240152Z 00000KT 1 3/4SM BR OVC005 03/03 A3025 RMK AO2 SLP243 T00330028
KBDR 240145Z 00000KT 1 3/4SM BR OVC005 03/02 A3025 RMK AO2 T00330022
KBDR 240121Z 00000KT 2SM BR BKN003 OVC009 03/02 A3026 RMK AO2 T00330022
KBDR 240109Z 03003KT 4SM BR BKN003 OVC011 03/02 A3026 RMK AO2 T00330022
KBDR 240052Z 00000KT 5SM BR FEW003 OVC011 03/02 A3028 RMK AO2 RAE2359 SLP252 P0000 T00280022
KBDR 232352Z 11003KT 5SM -RA BR FEW003 OVC012 03/03 A3031 RMK AO2 PRESFR SLP264 P0004 60012 T00280028 10028 20028 58029
KBDR 232252Z 09005KT 2 1/2SM -RA BR SCT004 OVC009 03/02 A3034 RMK AO2 SLP274 P0003 T00280022
KBDR 232231Z 09006KT 1 3/4SM RA BR BKN004 OVC009 03/02 A3035 RMK AO2 PRESFR P0001 T00280017
KBDR 232152Z 07006KT 2 1/2SM -RA BR BKN007 OVC011 03/02 A3039 RMK AO2 SLP291 P0003 T00280017
KBDR 232142Z 08010KT 2 1/2SM -RA BR SCT007 OVC011 03/01 A3038 RMK AO2 P0002 T00280011
KBDR 232052Z 08010KT 8SM -RA OVC009 03/01 A3040 RMK AO2 PRESFR SLP294 P0001 60002 T00280011 58046
KBDR 232011Z 09011KT 5SM -RA BR OVC009 03/01 A3043 RMK AO2 P0000 T00280011
KBDR 231952Z 09009KT 5SM -RA BR OVC012 03/02 A3046 RMK AO2 RAB30 SLP314 P0001 T00280017
KBDR 231930Z 08011KT 10SM -RA OVC014 03/01 A3047 RMK AO2 RAB30 P0000 T00280011
KBDR 231852Z 06009KT 10SM OVC016 03/01 A3050 RMK AO2 RAB23E42 SLP326 P0000 T00280011
KBDR 231752Z 08011KT 10SM OVC018 03/01 A3054 RMK AO2 RAE07 SLP341 P0000 60000 T00280011 10028 20017 58036
KBDR 231652Z 09009KT 6SM -RA BR OVC015 03/01 A3059 RMK AO2 RAE06B27 SLP358 P0000 T00280006
KBDR 231603Z 09010KT 6SM -RA BR OVC015 02/00 A3062 RMK AO2 P0000 T00220000
KBDR 231552Z 09010KT 4SM -RA BR OVC013 02/00 A3062 RMK AO2 RAB33 SLP369 P0000 T00220000
KBDR 231452Z 09011KT 10SM OVC013 02/M01 A3064 RMK AO2 SLP376 T00221006 55008
KBDR 231445Z 09010KT 10SM OVC014 02/M01 A3065 RMK AO2 T00221006
KBDR 231404Z 07010KT 10SM OVC016 02/M01 A3065 RMK AO2 T00221006
KBDR 231352Z 07011KT 10SM OVC014 02/M01 A3064 RMK AO2 SLP374 T00221011
KBDR 231331Z 06012KT 10SM OVC014 02/M01 A3064 RMK AO2 T00221011
KBDR 231252Z 04009KT 10SM OVC016 02/M01 A3067 RMK AO2 SLP385 T00171006
KBDR 231152Z 03005KT 10SM BKN019 02/M01 A3067 RMK AO2 SLP385 70006 T00171006 10022 20011 51001
KBDR 231126Z AUTO 02006KT 10SM SCT019 02/M01 A3067 RMK AO2 T00171006
KBDR 231052Z AUTO 03005KT 10SM OVC016 02/M01 A3067 RMK AO2 SLP384 T00171006
KBDR 230952Z AUTO 03006KT 10SM OVC010 02/00 A3068 RMK AO2 CIG 009V013 SLP390 T00220000
KBDR 230852Z AUTO 03005KT 10SM OVC010 02/00 A3067 RMK AO2 SLP384 T00220000 55010
KBDR 230752Z AUTO 05004KT 10SM OVC013 02/00 A3066 RMK AO2 SLP382 T00220000
KBDR 230652Z AUTO 04007KT 10SM BKN011 OVC044 02/M01 A3068 RMK AO2 SLP390 T00221006
KBDR 230552Z AUTO 03009KT 10SM OVC011 02/M01 A3069 RMK AO2 SLP393 T00221006 10022 20022 51012
KBDR 230452Z AUTO 05006KT 10SM OVC011 02/M01 A3068 RMK AO2 SLP390 T00221006 401440022
KBDR 230352Z AUTO 01009KT 10SM OVC013 02/00 A3070 RMK AO2 SLP394 T00220000
KBDR 230252Z 03005KT 10SM BKN013 OVC070 02/00 A3066 RMK AO2 SLP381 T00220000 50008
KBDR 230249Z 02005KT 10SM BKN013 OVC070 02/00 A3066 RMK AO2
KBDR 230211Z 02007KT 10SM SCT029 OVC070 02/00 A3065 RMK AO2 T00220000